Terminal Aerodrome Forecast
Issued by NWS Sioux Falls, SD

Home | Current Version | Previous Version | Graphics & Text | Print | Product List | Glossary On
Versions: 1 2 3 4 5 6 7 8 9 10 11 12 13 14 15 16 17 18 19 20 21 22 23 24
000
FTUS43 KFSD 011140
TAFHON
TAF
KHON 011140Z 0112/0212 11005KT 5SM BR SCT009 BKN080
     FM011500 12007KT P6SM SCT035 BKN070
     FM011700 14007KT P6SM SCT045 BKN100
     FM020000 12008KT P6SM BKN080
     FM020600 15007KT 5SM TSRA BR OVC050CB
     FM020900 14005KT 5SM -SHRA BR OVC015=

USA.gov is the U.S. government's official web portal to all federal, state and local government web resources and services.